ADDS METAR Data INFO
IDs: Format: Raw Decoded Include TAF

Data at: 1148 UTC 25 Jun 2018

KCOT 251053Z AUTO 14010KT 10SM SCT018 SCT023 24/23 A2990 RMK AO2 SLP117 T02440228
KCOT 251035Z AUTO 13008KT 10SM FEW015 FEW031 24/23 A2989 RMK AO2 T02440233
KCOT 250953Z AUTO 13007KT 10SM BKN019 24/23 A2988 RMK AO2 SLP110 T02440233
KCOT 250917Z AUTO 14007KT 10SM BKN015 24/23 A2988 RMK AO2 T02440228
KCOT 250853Z AUTO 14007KT 10SM CLR 24/23 A2989 RMK AO2 SLP111 T02440228 58000
KCOT 250753Z AUTO 14009KT 10SM FEW016 25/23 A2988 RMK AO2 SLP110 T02500228
KCOT 250653Z AUTO 14010KT 10SM CLR 26/22 A2989 RMK AO2 SLP114 T02560222
KCOT 250553Z AUTO 15010KT 10SM CLR 26/22 A2989 RMK AO2 SLP112 T02610222 10350 20261 403780244 51022
KCOT 250453Z AUTO 14011G20KT 10SM CLR 27/23 A2989 RMK AO2 SLP111 T02720228
KCOT 250353Z AUTO 14018G25KT 10SM CLR 28/23 A2985 RMK AO2 SLP098 T02780228
KCOT 250253Z AUTO 13015G23KT 10SM CLR 29/23 A2982 RMK AO2 SLP091 T02940228 53019
KCOT 250153Z AUTO 13015G25KT 10SM CLR 31/23 A2980 RMK AO2 PK WND 14026/0127 SLP082 T03110233
KCOT 250053Z AUTO 15012G21KT 10SM FEW050 34/22 A2978 RMK AO2 SLP075 T03390222
KCOT 242353Z AUTO 13020G23KT 10SM SCT060 35/22 A2977 RMK AO2 SLP071 T03500217 10378 20350 56009
KCOT 242253Z AUTO 13013G18KT 10SM CLR 37/19 A2977 RMK AO2 PK WND 12027/2235 SLP072 T03670194
KCOT 242153Z AUTO 14018G23KT 10SM FEW070 36/21 A2979 RMK AO2 PK WND 13031/2108 SLP077 T03560206
KCOT 242053Z AUTO 14018G25KT 10SM FEW065 SCT090 37/21 A2980 RMK AO2 PK WND 14027/2010 SLP080 T03720206 57005
KCOT 241953Z AUTO 13015KT 10SM CLR 37/20 A2980 RMK AO2 SLP082 T03720200
KCOT 241853Z AUTO 15011G23KT 10SM CLR 37/19 A2981 RMK AO2 SLP084 T03670194
KCOT 241753Z AUTO 14008G17KT 10SM CLR 35/21 A2981 RMK AO2 SLP086 T03500206 10356 20244 56004
KCOT 241653Z AUTO 17011G18KT 130V200 10SM CLR 34/21 A2982 RMK AO2 SLP087 T03390211
KCOT 241553Z AUTO 15009KT 10SM CLR 32/22 A2981 RMK AO2 SLP087 T03170217
KCOT 241453Z AUTO 17012G20KT 10SM CLR 29/23 A2982 RMK AO2 SLP090 T02940228 58004
KCOT 241353Z AUTO 16014G20KT 10SM CLR 27/23 A2983 RMK AO2 SLP092 T02720233
KCOT 241253Z AUTO 12007KT 9SM FEW019 26/23 A2985 RMK AO2 SLP098 T02560233
KCOT 241153Z AUTO 13006KT 6SM BR CLR 24/23 A2984 RMK AO2 SLP094 T02440233 10278 20244 53006
KCOT 241124Z AUTO 10006KT 8SM FEW019 25/23 A2984 RMK AO2 T02500233
KCOT 241053Z AUTO 13007KT 8SM OVC019 25/23 A2983 RMK AO2 SLP091 T02500228
KCOT 241034Z AUTO 12005KT 8SM BKN020 26/23 A2983 RMK AO2 T02560228
KCOT 240953Z AUTO 12007KT 8SM CLR 26/23 A2982 RMK AO2 SLP088 T02560228
KCOT 240916Z AUTO 14010KT 9SM SCT020 26/23 A2981 RMK AO2 T02560233
KCOT 240853Z AUTO 14010KT 9SM BKN020 26/23 A2982 RMK AO2 SLP087 T02610233 53003
KCOT 240842Z AUTO 15009G17KT 9SM BKN020 26/23 A2981 RMK AO2 T02610233
KCOT 240753Z AUTO 15016G23KT 9SM FEW018 26/24 A2980 RMK AO2 SLP081 T02610239
KCOT 240653Z AUTO 15014KT 8SM FEW017 27/24 A2981 RMK AO2 SLP084 T02670244
KCOT 240553Z AUTO 14013KT 8SM CLR 28/25 A2981 RMK AO2 SLP084 T02780250 10378 20278 403940239 51027
KCOT 240453Z AUTO 15012G20KT 8SM CLR 28/26 A2980 RMK AO2 SLP081 T02830256
KCOT 240353Z AUTO 14017G23KT 9SM CLR 29/26 A2975 RMK AO2 SLP066 T02940261
KCOT 240253Z AUTO 13017G21KT 9SM CLR 31/26 A2972 RMK AO2 SLP056 T03060261 53018
KCOT 240153Z AUTO 13018KT 10SM CLR 33/22 A2971 RMK AO2 SLP051 T03330222
KCOT 240053Z AUTO 13017G25KT 10SM CLR 36/23 A2969 RMK AO2 PK WND 12030/0005 SLP043 T03560228
KCOT 232353Z AUTO 14019G26KT 10SM FEW110 38/21 A2967 RMK AO2 PK WND 15027/2334 SLP038 T03780211 10394 20344 56013